Time;durP1;ratioP1;P1;durP2;ratioP2;P2;SDS_P1;SDS_P2;PMS_P1;PMS_P2;Temp;Humidity;BMP_temperature;BMP_pressure;BME280_temperature;BME280_humidity;BME280_pressure;Samples;Min_cycle;Max_cycle;Signal;HPM_P1;HPM_P2
2023/09/07 00:00:14;;;;;;;;;;;19.80;99.90;;;;;;5032833;28;19929;-78
2023/09/07 00:02:41;;;;;;;;;;;19.80;99.90;;;;;;5029415;28;19925;-78
2023/09/07 00:05:08;;;;;;;;;;;19.80;99.90;;;;;;5049092;28;19926;-77
2023/09/07 00:07:35;;;;;;;;;;;19.70;99.90;;;;;;5023491;28;20418;-78
2023/09/07 00:10:03;;;;;;;;;;;19.70;99.90;;;;;;5025930;28;19932;-78
2023/09/07 00:12:29;;;;;;;;;;;19.70;99.90;;;;;;5026030;28;19937;-78
2023/09/07 00:14:57;;;;;;;;;;;19.70;99.90;;;;;;5025817;28;19925;-78
2023/09/07 00:17:25;;;;;;;;;;;19.60;99.90;;;;;;5019741;28;19929;-78
2023/09/07 00:19:52;;;;;;;;;;;19.60;99.90;;;;;;5024025;28;19945;-79
2023/09/07 00:22:19;;;;;;;;;;;19.60;99.90;;;;;;5022035;28;20463;-78
2023/09/07 00:24:45;;;;;;;;;;;19.60;99.90;;;;;;5021914;28;19975;-78
2023/09/07 00:27:12;;;;;;;;;;;19.60;99.90;;;;;;5026201;28;19995;-78
2023/09/07 00:29:39;;;;;;;;;;;19.50;99.90;;;;;;5027553;28;19926;-79
2023/09/07 00:32:05;;;;;;;;;;;19.50;99.90;;;;;;5021700;28;19980;-77
2023/09/07 00:34:33;;;;;;;;;;;19.50;99.90;;;;;;5051700;28;19925;-77
2023/09/07 00:37:00;;;;;;;;;;;19.50;99.90;;;;;;5030326;28;19929;-77
2023/09/07 00:39:26;;;;;;;;;;;19.50;99.90;;;;;;5020230;28;19933;-77
2023/09/07 00:41:54;;;;;;;;;;;19.50;99.90;;;;;;5025658;28;19979;-77
2023/09/07 00:44:21;;;;;;;;;;;19.50;99.90;;;;;;5027789;28;19929;-78
2023/09/07 00:46:48;;;;;;;;;;;19.40;99.90;;;;;;5016196;28;19960;-77
2023/09/07 00:49:15;;;;;;;;;;;19.40;99.90;;;;;;5023334;28;20273;-78
2023/09/07 00:51:41;;;;;;;;;;;19.40;99.90;;;;;;5018517;28;19929;-78
2023/09/07 00:54:08;;;;;;;;;;;19.40;99.90;;;;;;5017384;28;19925;-78
2023/09/07 00:56:35;;;;;;;;;;;19.40;99.90;;;;;;5027084;28;20370;-77
2023/09/07 00:59:02;;;;;;;;;;;19.30;99.90;;;;;;5028422;28;19925;-78
2023/09/07 01:01:30;;;;;;;;;;;19.30;99.90;;;;;;5016834;28;19932;-78
2023/09/07 01:03:57;;;;;;;;;;;19.30;99.90;;;;;;5023549;28;19926;-79
2023/09/07 01:06:30;;;;;;;;;;;19.30;99.90;;;;;;5020076;28;19944;-79
2023/09/07 01:09:00;;;;;;;;;;;19.30;99.90;;;;;;5017282;28;19925;-79
2023/09/07 01:11:26;;;;;;;;;;;19.30;99.90;;;;;;5026212;28;19925;-79
2023/09/07 01:13:55;;;;;;;;;;;19.20;99.90;;;;;;5028608;28;19929;-79
2023/09/07 01:16:23;;;;;;;;;;;19.30;99.90;;;;;;5032440;28;19975;-78
2023/09/07 01:18:51;;;;;;;;;;;19.20;99.90;;;;;;5024348;28;19972;-79
2023/09/07 01:21:18;;;;;;;;;;;19.20;99.90;;;;;;5020693;28;19925;-78
2023/09/07 01:23:46;;;;;;;;;;;19.20;99.90;;;;;;5019306;28;20005;-79
2023/09/07 01:26:13;;;;;;;;;;;19.20;99.90;;;;;;5037468;28;20414;-78
2023/09/07 01:28:39;;;;;;;;;;;19.20;99.90;;;;;;5027008;28;19925;-78
2023/09/07 01:31:06;;;;;;;;;;;19.20;99.90;;;;;;5017687;28;19979;-78
2023/09/07 01:33:33;;;;;;;;;;;19.20;99.90;;;;;;5020571;28;19972;-78
2023/09/07 01:36:00;;;;;;;;;;;19.10;99.90;;;;;;5037587;28;19976;-79
2023/09/07 01:38:26;;;;;;;;;;;19.10;99.90;;;;;;5015853;28;19925;-79
2023/09/07 01:40:53;;;;;;;;;;;19.10;99.90;;;;;;5034352;28;19925;-77
2023/09/07 01:43:20;;;;;;;;;;;19.00;99.90;;;;;;5026238;28;19932;-78
2023/09/07 01:45:46;;;;;;;;;;;19.10;99.90;;;;;;5019723;28;20001;-79
2023/09/07 01:48:14;;;;;;;;;;;19.10;99.90;;;;;;5018479;28;19926;-79
2023/09/07 01:50:41;;;;;;;;;;;19.00;99.90;;;;;;5024073;28;19929;-79
2023/09/07 01:53:08;;;;;;;;;;;19.00;99.90;;;;;;5017108;28;19926;-79
2023/09/07 01:55:34;;;;;;;;;;;19.00;99.90;;;;;;5033707;28;19937;-79
2023/09/07 01:58:01;;;;;;;;;;;19.00;99.90;;;;;;5033183;28;19960;-79
2023/09/07 02:00:28;;;;;;;;;;;19.00;99.90;;;;;;5033248;28;20396;-78
2023/09/07 02:02:55;;;;;;;;;;;19.00;99.90;;;;;;5022823;28;19937;-79
2023/09/07 02:05:21;;;;;;;;;;;18.90;99.90;;;;;;5028220;28;19933;-78
2023/09/07 02:07:49;;;;;;;;;;;18.90;99.90;;;;;;5025425;28;19983;-79
2023/09/07 02:10:16;;;;;;;;;;;18.90;99.90;;;;;;5021071;28;20020;-78
2023/09/07 02:12:45;;;;;;;;;;;18.80;99.90;;;;;;5026822;28;19979;-79
2023/09/07 02:15:11;;;;;;;;;;;18.80;99.90;;;;;;5020517;28;19980;-77
2023/09/07 02:17:38;;;;;;;;;;;18.90;99.90;;;;;;5019798;28;19972;-78
2023/09/07 02:20:10;;;;;;;;;;;18.80;99.90;;;;;;5028482;28;19930;-79
2023/09/07 02:22:37;;;;;;;;;;;18.80;99.90;;;;;;5036301;28;19968;-78
2023/09/07 02:25:05;;;;;;;;;;;18.80;99.90;;;;;;5019331;28;20447;-79
2023/09/07 02:27:32;;;;;;;;;;;18.80;99.90;;;;;;5025788;28;19971;-78
2023/09/07 02:29:59;;;;;;;;;;;18.80;99.90;;;;;;5031977;28;19926;-79
2023/09/07 02:32:26;;;;;;;;;;;18.70;99.90;;;;;;5026735;28;19925;-78
2023/09/07 02:34:52;;;;;;;;;;;18.70;99.90;;;;;;5041735;28;19925;-78
2023/09/07 02:37:19;;;;;;;;;;;18.70;99.90;;;;;;5025551;28;19925;-79
2023/09/07 02:39:46;;;;;;;;;;;18.70;99.90;;;;;;5025809;28;19925;-78
2023/09/07 02:42:12;;;;;;;;;;;18.70;99.90;;;;;;5024295;28;19924;-79
2023/09/07 02:44:39;;;;;;;;;;;18.70;99.90;;;;;;5024634;28;19926;-79
2023/09/07 02:47:06;;;;;;;;;;;18.70;99.90;;;;;;5018644;28;19971;-77
2023/09/07 02:49:34;;;;;;;;;;;18.70;99.90;;;;;;5027263;28;19925;-79
2023/09/07 02:52:01;;;;;;;;;;;18.60;99.90;;;;;;5039586;28;19933;-79
2023/09/07 02:54:27;;;;;;;;;;;18.60;99.90;;;;;;5026456;28;20355;-78
2023/09/07 02:56:54;;;;;;;;;;;18.60;99.90;;;;;;5023482;28;19925;-79
2023/09/07 02:59:21;;;;;;;;;;;18.60;99.90;;;;;;5026179;28;19926;-79
2023/09/07 03:01:47;;;;;;;;;;;18.60;99.90;;;;;;5018460;28;19929;-78
2023/09/07 03:04:14;;;;;;;;;;;18.60;99.90;;;;;;5026565;28;19925;-78
2023/09/07 03:06:41;;;;;;;;;;;18.50;99.90;;;;;;5028423;28;19925;-79
2023/09/07 03:09:08;;;;;;;;;;;18.50;99.90;;;;;;5028257;28;19980;-79
2023/09/07 03:11:35;;;;;;;;;;;18.50;99.90;;;;;;5026346;28;19988;-79
2023/09/07 03:14:02;;;;;;;;;;;18.50;99.90;;;;;;5026341;28;20347;-79
2023/09/07 03:16:30;;;;;;;;;;;18.50;99.90;;;;;;5018439;28;20392;-79
2023/09/07 03:18:57;;;;;;;;;;;18.50;99.90;;;;;;5025241;28;19926;-79
2023/09/07 03:21:29;;;;;;;;;;;18.40;99.90;;;;;;5043441;28;19925;-78
2023/09/07 03:23:56;;;;;;;;;;;18.40;99.90;;;;;;5031512;28;19948;-79
2023/09/07 03:26:22;;;;;;;;;;;18.50;99.90;;;;;;5027094;28;19925;-78
2023/09/07 03:28:49;;;;;;;;;;;18.40;99.90;;;;;;5052807;28;19925;-78
2023/09/07 03:31:16;;;;;;;;;;;18.40;99.90;;;;;;5042003;28;20355;-78
2023/09/07 03:33:42;;;;;;;;;;;18.40;99.90;;;;;;5030794;28;19952;-77
2023/09/07 03:36:10;;;;;;;;;;;18.40;99.90;;;;;;5051780;28;19979;-77
2023/09/07 03:38:37;;;;;;;;;;;18.40;99.90;;;;;;5040517;28;19925;-77
2023/09/07 03:41:03;;;;;;;;;;;18.40;99.90;;;;;;5035301;28;19932;-76
2023/09/07 03:43:30;;;;;;;;;;;18.40;99.90;;;;;;5024474;28;19936;-78
2023/09/07 03:45:57;;;;;;;;;;;18.40;99.90;;;;;;5020767;28;19926;-77
2023/09/07 03:48:24;;;;;;;;;;;18.30;99.90;;;;;;5023621;28;19925;-78
2023/09/07 03:50:50;;;;;;;;;;;18.30;99.90;;;;;;5027638;28;19940;-77
2023/09/07 03:53:17;;;;;;;;;;;18.30;99.90;;;;;;5033712;28;19925;-79
2023/09/07 03:55:44;;;;;;;;;;;18.30;99.90;;;;;;5033701;28;19929;-78
2023/09/07 03:58:11;;;;;;;;;;;18.30;99.90;;;;;;5025040;28;19959;-79
2023/09/07 04:00:41;;;;;;;;;;;18.30;99.90;;;;;;5025356;28;19932;-78
2023/09/07 04:03:08;;;;;;;;;;;18.30;99.90;;;;;;5051932;28;19948;-78
2023/09/07 04:05:41;;;;;;;;;;;18.30;99.90;;;;;;5038157;28;19925;-79
2023/09/07 04:08:07;;;;;;;;;;;18.30;99.90;;;;;;5030233;28;19971;-78
2023/09/07 04:10:38;;;;;;;;;;;18.20;99.90;;;;;;5017974;28;19925;-79
2023/09/07 04:13:05;;;;;;;;;;;18.20;99.90;;;;;;5032114;28;19932;-79
2023/09/07 04:15:33;;;;;;;;;;;18.20;99.90;;;;;;5019799;28;20324;-78
2023/09/07 04:17:59;;;;;;;;;;;18.20;99.90;;;;;;5033130;28;20364;-80
2023/09/07 04:20:28;;;;;;;;;;;18.20;99.90;;;;;;5024038;28;19983;-78
2023/09/07 04:22:54;;;;;;;;;;;18.20;99.90;;;;;;5029395;28;20021;-79
2023/09/07 04:25:21;;;;;;;;;;;18.20;99.90;;;;;;5018608;28;19926;-78
2023/09/07 04:27:48;;;;;;;;;;;18.20;99.90;;;;;;5021978;28;19925;-77
2023/09/07 04:30:14;;;;;;;;;;;18.10;99.90;;;;;;5021248;28;19925;-79
2023/09/07 04:32:41;;;;;;;;;;;18.10;99.90;;;;;;5037090;28;19926;-79
2023/09/07 04:35:08;;;;;;;;;;;18.10;99.90;;;;;;5023998;28;19929;-79
2023/09/07 04:37:35;;;;;;;;;;;18.10;99.90;;;;;;5026737;28;19925;-79
2023/09/07 04:40:02;;;;;;;;;;;18.10;99.90;;;;;;5032981;28;19929;-79
2023/09/07 04:42:29;;;;;;;;;;;18.10;99.90;;;;;;5033784;28;20008;-80
2023/09/07 04:44:56;;;;;;;;;;;18.00;99.90;;;;;;5022936;28;20016;-79
2023/09/07 04:47:22;;;;;;;;;;;18.00;99.90;;;;;;5048640;28;19925;-79
2023/09/07 04:49:51;;;;;;;;;;;18.00;99.90;;;;;;5026061;28;19932;-78
2023/09/07 04:52:18;;;;;;;;;;;18.00;99.90;;;;;;5027022;28;20387;-79
2023/09/07 04:54:45;;;;;;;;;;;18.00;99.90;;;;;;5016204;28;19925;-78
2023/09/07 04:57:13;;;;;;;;;;;18.00;99.90;;;;;;5035270;28;19925;-76
2023/09/07 04:59:40;;;;;;;;;;;18.00;99.90;;;;;;5023498;28;20296;-79
2023/09/07 05:02:07;;;;;;;;;;;18.00;99.90;;;;;;5031575;28;19937;-79
2023/09/07 05:04:33;;;;;;;;;;;17.90;99.90;;;;;;5018229;28;19940;-80
2023/09/07 05:07:00;;;;;;;;;;;17.90;99.90;;;;;;5024985;28;19925;-79
2023/09/07 05:09:29;;;;;;;;;;;17.90;99.90;;;;;;5030297;28;19975;-78
2023/09/07 05:11:55;;;;;;;;;;;17.90;99.90;;;;;;5017979;28;19925;-78
2023/09/07 05:14:25;;;;;;;;;;;17.90;99.90;;;;;;5023936;28;19925;-79
2023/09/07 05:16:52;;;;;;;;;;;17.90;99.90;;;;;;5024671;28;19979;-79
2023/09/07 05:19:19;;;;;;;;;;;17.90;99.90;;;;;;5021600;28;19926;-79
2023/09/07 05:21:46;;;;;;;;;;;17.90;99.90;;;;;;5023913;28;20434;-80
2023/09/07 05:24:13;;;;;;;;;;;17.90;99.90;;;;;;5019863;28;19972;-79
2023/09/07 05:26:39;;;;;;;;;;;17.90;99.90;;;;;;5017596;28;19930;-79
2023/09/07 05:29:06;;;;;;;;;;;17.90;99.90;;;;;;5023833;28;19976;-79
2023/09/07 05:31:33;;;;;;;;;;;17.90;99.90;;;;;;5038453;28;19972;-79
2023/09/07 05:34:00;;;;;;;;;;;17.90;99.90;;;;;;5022998;28;19933;-79
2023/09/07 05:36:27;;;;;;;;;;;17.90;99.90;;;;;;5022579;28;20388;-77
2023/09/07 05:38:54;;;;;;;;;;;17.90;99.90;;;;;;5021702;28;20003;-79
2023/09/07 05:41:20;;;;;;;;;;;17.90;99.90;;;;;;5016236;28;20342;-80
2023/09/07 05:43:48;;;;;;;;;;;18.00;99.90;;;;;;5024979;28;19937;-77
2023/09/07 05:46:15;;;;;;;;;;;18.00;99.90;;;;;;5027031;28;19932;-78
2023/09/07 05:48:42;;;;;;;;;;;18.00;99.90;;;;;;5023798;28;20055;-79
2023/09/07 05:51:09;;;;;;;;;;;18.00;99.90;;;;;;5021578;28;19979;-78
2023/09/07 05:53:35;;;;;;;;;;;18.00;99.90;;;;;;5029593;28;19975;-78
2023/09/07 05:56:02;;;;;;;;;;;18.00;99.90;;;;;;5015362;28;20428;-79
2023/09/07 05:58:29;;;;;;;;;;;18.10;99.90;;;;;;5022941;28;19964;-78
2023/09/07 06:00:56;;;;;;;;;;;18.10;99.90;;;;;;5040134;28;19925;-80
2023/09/07 06:03:23;;;;;;;;;;;18.10;99.90;;;;;;5025411;28;19981;-78
2023/09/07 06:05:49;;;;;;;;;;;18.10;99.90;;;;;;5022586;28;20315;-79
2023/09/07 06:08:16;;;;;;;;;;;18.20;99.90;;;;;;5023930;28;19929;-79
2023/09/07 06:10:43;;;;;;;;;;;18.20;99.90;;;;;;5015917;28;20368;-78
2023/09/07 06:13:09;;;;;;;;;;;18.20;99.90;;;;;;5023402;28;19970;-79
2023/09/07 06:15:36;;;;;;;;;;;18.30;99.90;;;;;;5041561;28;19940;-79
2023/09/07 06:18:03;;;;;;;;;;;18.30;99.90;;;;;;5026696;28;19926;-79
2023/09/07 06:20:30;;;;;;;;;;;18.30;99.90;;;;;;5018567;28;19936;-79
2023/09/07 06:22:56;;;;;;;;;;;18.30;99.90;;;;;;5025455;28;19925;-79
2023/09/07 06:25:23;;;;;;;;;;;18.40;99.90;;;;;;5020106;28;20523;-79
2023/09/07 06:27:50;;;;;;;;;;;18.40;99.90;;;;;;5026496;28;19936;-78
2023/09/07 06:30:18;;;;;;;;;;;18.40;99.90;;;;;;5026704;28;19942;-79
2023/09/07 06:32:44;;;;;;;;;;;18.40;99.90;;;;;;5028195;28;19948;-79
2023/09/07 06:35:11;;;;;;;;;;;18.50;99.90;;;;;;5018927;28;20029;-79
2023/09/07 06:37:40;;;;;;;;;;;18.50;99.90;;;;;;5027243;28;19929;-79
2023/09/07 06:40:08;;;;;;;;;;;18.50;99.90;;;;;;5024014;28;19926;-79
2023/09/07 06:42:34;;;;;;;;;;;18.60;99.90;;;;;;5043073;28;19925;-79
2023/09/07 06:45:02;;;;;;;;;;;18.60;99.90;;;;;;5025852;28;19979;-78
2023/09/07 06:47:29;;;;;;;;;;;18.70;99.90;;;;;;5017094;28;19992;-79
2023/09/07 06:49:57;;;;;;;;;;;18.70;99.90;;;;;;5017243;28;19936;-79
2023/09/07 06:52:24;;;;;;;;;;;18.70;99.90;;;;;;5041416;28;19925;-79
2023/09/07 06:54:53;;;;;;;;;;;18.80;99.90;;;;;;5036437;28;19925;-79
2023/09/07 06:57:20;;;;;;;;;;;18.80;99.90;;;;;;5042822;28;19929;-79
2023/09/07 06:59:48;;;;;;;;;;;18.80;99.90;;;;;;5036282;28;19965;-78
2023/09/07 07:02:15;;;;;;;;;;;18.90;99.90;;;;;;5038258;28;19925;-78
2023/09/07 07:04:43;;;;;;;;;;;18.90;99.90;;;;;;5028056;28;20020;-79
2023/09/07 07:07:10;;;;;;;;;;;19.00;99.90;;;;;;5037236;28;19925;-79
2023/09/07 07:09:37;;;;;;;;;;;19.00;99.90;;;;;;5040143;28;19925;-78
2023/09/07 07:12:04;;;;;;;;;;;19.10;99.90;;;;;;5031654;28;19925;-79
2023/09/07 07:14:31;;;;;;;;;;;19.10;99.90;;;;;;5024613;28;19932;-79
2023/09/07 07:16:58;;;;;;;;;;;19.20;99.90;;;;;;5029875;28;20430;-79
2023/09/07 07:19:25;;;;;;;;;;;19.20;99.90;;;;;;5019049;28;19979;-80
2023/09/07 07:21:52;;;;;;;;;;;19.30;99.90;;;;;;5028534;28;19933;-79
2023/09/07 07:24:18;;;;;;;;;;;19.30;99.90;;;;;;5023625;28;19931;-79
2023/09/07 07:26:46;;;;;;;;;;;19.30;99.90;;;;;;5024177;28;19979;-78
2023/09/07 07:29:12;;;;;;;;;;;19.40;99.90;;;;;;5042663;28;19925;-78
2023/09/07 07:31:39;;;;;;;;;;;19.40;99.90;;;;;;5040320;28;19971;-79
2023/09/07 07:34:06;;;;;;;;;;;19.40;99.90;;;;;;5026527;28;19936;-79
2023/09/07 07:36:32;;;;;;;;;;;19.50;99.90;;;;;;5024305;28;19925;-79
2023/09/07 07:38:59;;;;;;;;;;;19.50;99.90;;;;;;5023127;28;19994;-79
2023/09/07 07:41:25;;;;;;;;;;;19.60;99.90;;;;;;5017779;28;20396;-78
2023/09/07 07:43:52;;;;;;;;;;;19.60;99.90;;;;;;5021659;28;20388;-78
2023/09/07 07:46:19;;;;;;;;;;;19.60;99.90;;;;;;5034332;28;20509;-79
2023/09/07 07:48:46;;;;;;;;;;;19.70;99.90;;;;;;5023425;28;19925;-79
2023/09/07 07:51:13;;;;;;;;;;;19.70;99.90;;;;;;5021398;28;19941;-78
2023/09/07 07:53:39;;;;;;;;;;;19.80;99.90;;;;;;5024334;28;19925;-79
2023/09/07 07:56:14;;;;;;;;;;;19.80;99.90;;;;;;5017346;28;19964;-79
2023/09/07 07:58:41;;;;;;;;;;;19.90;99.90;;;;;;5020753;28;19925;-79
2023/09/07 08:01:18;;;;;;;;;;;19.90;99.90;;;;;;5043200;28;20324;-80
2023/09/07 08:03:44;;;;;;;;;;;19.90;99.90;;;;;;5035290;28;19925;-79
2023/09/07 08:06:11;;;;;;;;;;;20.00;99.90;;;;;;5022048;28;19932;-80
2023/09/07 08:08:41;;;;;;;;;;;20.10;99.90;;;;;;5025021;28;19936;-79
2023/09/07 08:11:09;;;;;;;;;;;20.10;99.90;;;;;;5029066;28;19933;-79
2023/09/07 08:13:35;;;;;;;;;;;20.10;99.90;;;;;;5032912;28;20343;-79
2023/09/07 08:16:03;;;;;;;;;;;20.20;99.90;;;;;;5026601;28;19988;-78
2023/09/07 08:18:32;;;;;;;;;;;20.20;99.90;;;;;;5020068;28;19969;-78
2023/09/07 08:21:00;;;;;;;;;;;20.30;99.90;;;;;;5019467;28;19925;-79
2023/09/07 08:23:26;;;;;;;;;;;20.30;99.90;;;;;;5025366;28;19929;-78
2023/09/07 08:25:54;;;;;;;;;;;20.40;99.90;;;;;;5024800;28;19925;-78
2023/09/07 08:28:22;;;;;;;;;;;20.40;99.90;;;;;;5022815;28;20016;-79
2023/09/07 08:30:49;;;;;;;;;;;20.50;99.90;;;;;;5025879;28;19929;-78
2023/09/07 08:33:17;;;;;;;;;;;20.50;99.90;;;;;;5021555;28;19926;-78
2023/09/07 08:35:44;;;;;;;;;;;20.60;99.90;;;;;;5018998;28;20280;-77
2023/09/07 08:38:11;;;;;;;;;;;20.60;99.90;;;;;;5025806;28;19932;-78
2023/09/07 08:40:40;;;;;;;;;;;20.70;99.90;;;;;;5027826;28;19925;-77
2023/09/07 08:43:09;;;;;;;;;;;20.70;99.90;;;;;;5031783;28;19979;-78
2023/09/07 08:45:40;;;;;;;;;;;20.70;99.90;;;;;;5024575;28;19979;-78
2023/09/07 08:48:08;;;;;;;;;;;20.80;99.90;;;;;;5022812;28;19925;-78
2023/09/07 08:50:37;;;;;;;;;;;20.90;99.90;;;;;;5031152;28;19932;-78
2023/09/07 08:53:04;;;;;;;;;;;20.90;99.90;;;;;;5026573;28;19995;-79
2023/09/07 08:55:31;;;;;;;;;;;20.90;99.90;;;;;;5029914;28;19948;-78
2023/09/07 08:57:58;;;;;;;;;;;21.00;99.90;;;;;;5022041;28;19925;-79
2023/09/07 09:00:24;;;;;;;;;;;21.00;99.90;;;;;;5039193;28;19972;-79
2023/09/07 09:02:54;;;;;;;;;;;21.10;99.90;;;;;;5022642;28;19932;-78
2023/09/07 09:05:23;;;;;;;;;;;21.10;99.90;;;;;;5018698;28;20440;-79
2023/09/07 09:08:00;;;;;;;;;;;21.10;99.90;;;;;;5026924;28;20008;-78
2023/09/07 09:10:26;;;;;;;;;;;21.10;99.90;;;;;;5030373;28;19979;-79
2023/09/07 09:12:53;;;;;;;;;;;21.20;99.90;;;;;;5018021;28;19926;-78
2023/09/07 09:15:22;;;;;;;;;;;21.20;99.90;;;;;;5023350;28;20380;-78
2023/09/07 09:17:49;;;;;;;;;;;21.30;99.90;;;;;;5021680;28;19977;-79
2023/09/07 09:20:22;;;;;;;;;;;21.30;99.90;;;;;;5017511;28;19925;-79
2023/09/07 09:22:52;;;;;;;;;;;21.40;99.90;;;;;;5027656;28;20377;-79
2023/09/07 09:25:20;;;;;;;;;;;21.40;99.90;;;;;;5044535;28;20016;-79
2023/09/07 09:27:47;;;;;;;;;;;21.50;99.90;;;;;;5017690;28;19926;-79
2023/09/07 09:30:16;;;;;;;;;;;21.50;99.90;;;;;;5040013;28;20033;-79
2023/09/07 09:32:43;;;;;;;;;;;21.60;99.90;;;;;;5022159;28;19932;-79
2023/09/07 09:35:10;;;;;;;;;;;21.60;99.90;;;;;;5019828;28;19993;-79
2023/09/07 09:37:55;;;;;;;;;;;21.60;99.90;;;;;;5030078;28;20344;-78
2023/09/07 09:40:23;;;;;;;;;;;21.70;99.90;;;;;;5030425;28;19927;-80
2023/09/07 09:42:51;;;;;;;;;;;21.80;99.90;;;;;;5032100;28;20422;-78
2023/09/07 09:45:18;;;;;;;;;;;21.80;99.90;;;;;;5024820;28;20351;-79
2023/09/07 09:47:46;;;;;;;;;;;21.90;99.90;;;;;;5022350;28;19926;-79
2023/09/07 09:50:13;;;;;;;;;;;21.90;99.90;;;;;;5018359;28;19926;-79
2023/09/07 09:52:40;;;;;;;;;;;22.00;99.90;;;;;;5029441;28;19929;-79
2023/09/07 09:55:08;;;;;;;;;;;22.10;99.90;;;;;;5027483;28;19925;-79
2023/09/07 09:57:35;;;;;;;;;;;22.10;99.90;;;;;;5030403;28;20019;-79
2023/09/07 10:00:19;;;;;;;;;;;22.20;99.90;;;;;;5020930;28;19925;-79
2023/09/07 10:02:48;;;;;;;;;;;22.20;99.90;;;;;;5022984;28;19925;-79
2023/09/07 10:05:15;;;;;;;;;;;22.20;99.90;;;;;;5018320;28;20376;-79
2023/09/07 10:07:42;;;;;;;;;;;22.30;99.90;;;;;;5026992;28;20323;-80
2023/09/07 10:10:12;;;;;;;;;;;22.40;99.90;;;;;;5043537;28;19925;-80
2023/09/07 10:12:42;;;;;;;;;;;22.50;99.90;;;;;;5019361;28;19930;-80
2023/09/07 10:15:21;;;;;;;;;;;22.50;99.90;;;;;;5020387;28;19938;-79
2023/09/07 10:17:50;;;;;;;;;;;22.60;99.90;;;;;;5025312;28;19929;-80
2023/09/07 10:20:17;;;;;;;;;;;22.70;99.90;;;;;;5018271;28;19937;-80
2023/09/07 10:22:45;;;;;;;;;;;22.60;99.90;;;;;;5027278;28;20016;-79
2023/09/07 10:25:21;;;;;;;;;;;22.80;99.90;;;;;;5029572;28;19979;-79
2023/09/07 10:27:48;;;;;;;;;;;22.80;99.90;;;;;;5020469;28;19929;-79
2023/09/07 10:30:23;;;;;;;;;;;22.90;99.90;;;;;;5035258;28;20114;-79
2023/09/07 10:32:50;;;;;;;;;;;23.00;99.90;;;;;;5035042;28;20018;-78
2023/09/07 10:35:21;;;;;;;;;;;23.10;99.90;;;;;;5023960;28;19958;-79
2023/09/07 10:37:48;;;;;;;;;;;23.10;99.90;;;;;;5029227;28;19929;-79
2023/09/07 10:40:21;;;;;;;;;;;23.10;99.90;;;;;;5040595;28;19925;-78
2023/09/07 10:42:48;;;;;;;;;;;23.20;99.90;;;;;;5033877;28;20356;-79
2023/09/07 10:45:16;;;;;;;;;;;23.20;99.90;;;;;;5024352;28;19926;-80
2023/09/07 10:47:43;;;;;;;;;;;23.30;99.90;;;;;;5028359;28;19925;-80
2023/09/07 10:50:11;;;;;;;;;;;23.30;99.90;;;;;;5020273;28;19925;-80
2023/09/07 10:52:38;;;;;;;;;;;23.40;99.90;;;;;;5024303;28;19979;-79
2023/09/07 10:55:05;;;;;;;;;;;23.40;99.90;;;;;;5029356;28;20427;-78
2023/09/07 10:57:32;;;;;;;;;;;23.50;99.90;;;;;;5035571;28;19968;-78
2023/09/07 10:59:58;;;;;;;;;;;23.60;99.90;;;;;;5037827;28;20362;-79
2023/09/07 11:02:25;;;;;;;;;;;23.60;99.90;;;;;;5029372;28;19926;-79
2023/09/07 11:04:52;;;;;;;;;;;23.70;99.90;;;;;;5026978;28;20416;-78
2023/09/07 11:07:19;;;;;;;;;;;23.80;99.90;;;;;;5021043;28;19995;-78
2023/09/07 11:09:46;;;;;;;;;;;23.80;99.90;;;;;;5027736;28;19980;-79
2023/09/07 11:12:13;;;;;;;;;;;23.90;99.90;;;;;;5022314;28;19932;-78
2023/09/07 11:14:40;;;;;;;;;;;24.00;99.90;;;;;;5017628;28;19948;-78
2023/09/07 11:17:07;;;;;;;;;;;24.00;99.90;;;;;;5025697;28;19925;-77
2023/09/07 11:19:34;;;;;;;;;;;24.00;99.90;;;;;;5027000;28;19925;-78
2023/09/07 11:22:00;;;;;;;;;;;24.10;99.90;;;;;;5030345;28;19933;-79
2023/09/07 11:24:27;;;;;;;;;;;24.20;99.90;;;;;;5047208;28;19925;-79
2023/09/07 11:26:54;;;;;;;;;;;24.20;99.90;;;;;;5030737;28;20273;-78
2023/09/07 11:29:22;;;;;;;;;;;24.20;99.90;;;;;;5021851;28;19952;-79
2023/09/07 11:31:49;;;;;;;;;;;24.20;99.90;;;;;;5025993;28;20400;-78
2023/09/07 11:34:16;;;;;;;;;;;24.30;99.90;;;;;;5026918;28;20564;-79
2023/09/07 11:36:43;;;;;;;;;;;24.30;99.90;;;;;;5020000;28;19953;-78
2023/09/07 11:39:13;;;;;;;;;;;24.30;99.90;;;;;;5022877;28;19932;-78
2023/09/07 11:41:43;;;;;;;;;;;24.30;99.90;;;;;;5023391;28;19957;-79
2023/09/07 11:44:10;;;;;;;;;;;24.40;99.90;;;;;;5017492;28;20153;-78
2023/09/07 11:46:38;;;;;;;;;;;24.40;99.90;;;;;;5027176;28;19925;-79
2023/09/07 11:49:05;;;;;;;;;;;24.50;99.90;;;;;;5029718;28;20349;-80
2023/09/07 11:51:32;;;;;;;;;;;24.50;99.90;;;;;;5020932;28;19944;-78
2023/09/07 11:54:01;;;;;;;;;;;24.50;99.90;;;;;;5025132;28;19937;-78
2023/09/07 11:56:28;;;;;;;;;;;24.50;99.90;;;;;;5022712;28;19925;-78
2023/09/07 11:58:55;;;;;;;;;;;24.60;99.90;;;;;;5016594;28;19972;-79
2023/09/07 12:01:22;;;;;;;;;;;24.70;99.90;;;;;;5027172;28;19931;-78
2023/09/07 12:03:49;;;;;;;;;;;24.60;99.90;;;;;;5027950;28;19936;-79
2023/09/07 12:06:16;;;;;;;;;;;24.70;99.90;;;;;;5021578;28;19932;-78
2023/09/07 12:08:57;;;;;;;;;;;24.80;99.90;;;;;;5020321;28;19976;-77
2023/09/07 12:11:24;;;;;;;;;;;24.90;99.90;;;;;;5025368;28;20388;-78
2023/09/07 12:13:51;;;;;;;;;;;24.90;99.90;;;;;;5017015;28;19937;-78
2023/09/07 12:16:17;;;;;;;;;;;25.00;99.90;;;;;;5028593;28;20398;-79
2023/09/07 12:18:44;;;;;;;;;;;25.10;99.90;;;;;;5028920;28;19947;-78
2023/09/07 12:21:11;;;;;;;;;;;25.10;99.90;;;;;;5022135;28;19926;-78
2023/09/07 12:23:37;;;;;;;;;;;25.10;99.90;;;;;;5020906;28;19972;-79
2023/09/07 12:26:04;;;;;;;;;;;25.20;99.90;;;;;;5024065;28;19988;-79
2023/09/07 12:28:33;;;;;;;;;;;25.30;99.90;;;;;;5016553;28;19932;-78
2023/09/07 12:31:00;;;;;;;;;;;25.30;99.90;;;;;;5027438;28;19933;-79
2023/09/07 12:33:30;;;;;;;;;;;25.30;99.90;;;;;;5028282;28;19925;-80
2023/09/07 12:35:57;;;;;;;;;;;25.30;99.90;;;;;;5022504;28;19925;-78
2023/09/07 12:38:28;;;;;;;;;;;25.30;99.90;;;;;;5019602;28;20288;-78
2023/09/07 12:40:55;;;;;;;;;;;25.40;99.90;;;;;;5025378;28;19926;-79
2023/09/07 12:43:22;;;;;;;;;;;25.40;99.90;;;;;;5017808;28;20320;-79
2023/09/07 12:45:48;;;;;;;;;;;25.50;99.90;;;;;;5027021;28;20354;-79
2023/09/07 12:48:15;;;;;;;;;;;25.50;99.90;;;;;;5026873;28;20356;-79
2023/09/07 12:50:43;;;;;;;;;;;25.50;99.90;;;;;;5016990;28;19925;-79
2023/09/07 12:53:09;;;;;;;;;;;25.60;99.90;;;;;;5018516;28;20399;-79
2023/09/07 12:55:36;;;;;;;;;;;25.60;99.90;;;;;;5024463;28;20398;-79
2023/09/07 12:58:03;;;;;;;;;;;25.60;99.90;;;;;;5017911;28;19930;-78
2023/09/07 13:00:30;;;;;;;;;;;25.70;99.90;;;;;;5024353;28;19933;-79
2023/09/07 13:02:56;;;;;;;;;;;25.70;99.90;;;;;;5024580;28;19948;-78
2023/09/07 13:05:23;;;;;;;;;;;25.70;99.90;;;;;;5025676;28;19929;-79
2023/09/07 13:07:51;;;;;;;;;;;25.70;99.90;;;;;;5017381;28;19936;-80
2023/09/07 13:10:18;;;;;;;;;;;25.70;99.90;;;;;;5032475;28;19998;-81
2023/09/07 13:12:45;;;;;;;;;;;25.80;99.90;;;;;;5035653;28;20373;-79
2023/09/07 13:15:11;;;;;;;;;;;25.80;99.90;;;;;;5017902;28;19980;-78
2023/09/07 13:17:38;;;;;;;;;;;25.80;99.90;;;;;;5025635;28;20405;-79
2023/09/07 13:20:05;;;;;;;;;;;25.90;99.90;;;;;;5026944;28;19948;-78
2023/09/07 13:22:32;;;;;;;;;;;25.90;99.90;;;;;;5019899;28;20343;-79
2023/09/07 13:24:59;;;;;;;;;;;25.90;99.90;;;;;;5023696;28;19930;-79
2023/09/07 13:27:26;;;;;;;;;;;26.00;99.90;;;;;;5020954;28;19929;-79
2023/09/07 13:29:52;;;;;;;;;;;26.00;99.90;;;;;;5017066;28;20388;-79
2023/09/07 13:32:19;;;;;;;;;;;26.10;99.90;;;;;;5023968;28;19960;-79
2023/09/07 13:34:45;;;;;;;;;;;26.10;99.90;;;;;;5028865;28;19929;-79
2023/09/07 13:37:12;;;;;;;;;;;26.10;99.90;;;;;;5032002;28;20397;-79
2023/09/07 13:39:39;;;;;;;;;;;26.20;99.90;;;;;;5038881;28;19981;-79
2023/09/07 13:42:06;;;;;;;;;;;26.30;99.90;;;;;;5021481;28;20308;-79
2023/09/07 13:44:32;;;;;;;;;;;26.30;99.90;;;;;;5023850;28;19925;-79
2023/09/07 13:46:59;;;;;;;;;;;26.30;99.90;;;;;;5021860;28;19925;-79
2023/09/07 13:49:26;;;;;;;;;;;26.40;99.90;;;;;;5027861;28;19925;-78
2023/09/07 13:51:53;;;;;;;;;;;26.40;99.90;;;;;;5018455;28;19972;-79
2023/09/07 13:54:20;;;;;;;;;;;26.50;99.90;;;;;;5026258;28;19993;-79
2023/09/07 13:56:46;;;;;;;;;;;26.40;99.90;;;;;;5023749;28;19932;-79
2023/09/07 13:59:13;;;;;;;;;;;26.50;99.90;;;;;;5017995;28;20415;-79
2023/09/07 14:01:40;;;;;;;;;;;26.60;99.90;;;;;;5027372;28;19925;-79
2023/09/07 14:04:07;;;;;;;;;;;26.50;99.90;;;;;;5033618;28;19929;-80
2023/09/07 14:06:33;;;;;;;;;;;26.60;99.90;;;;;;5025530;28;19929;-78
2023/09/07 14:09:00;;;;;;;;;;;26.60;99.90;;;;;;5026102;28;19926;-79
2023/09/07 14:11:27;;;;;;;;;;;26.60;99.90;;;;;;5048196;28;19925;-77
2023/09/07 14:13:54;;;;;;;;;;;26.70;99.90;;;;;;5035420;28;19932;-77
2023/09/07 14:16:21;;;;;;;;;;;26.70;99.90;;;;;;5024192;28;19929;-79